Time;durP1;ratioP1;P1;durP2;ratioP2;P2;SDS_P1;SDS_P2;PMS_P1;PMS_P2;Temp;Humidity;BMP_temperature;BMP_pressure;BME280_temperature;BME280_humidity;BME280_pressure;Samples;Min_cycle;Max_cycle;Signal;HPM_P1;HPM_P2
2024/01/24 00:01:45;;;;;;;10.05;3.50;;;7.70;99.90;;;;;;6240374;23;20380;-68
2024/01/24 00:04:31;;;;;;;6.90;2.95;;;7.60;99.90;;;;;;6240736;23;20008;-69
2024/01/24 00:07:17;;;;;;;9.50;3.20;;;7.60;99.90;;;;;;6240137;23;20087;-69
2024/01/24 00:10:03;;;;;;;8.32;2.80;;;7.60;99.90;;;;;;6238871;23;20035;-68
2024/01/24 00:12:49;;;;;;;8.05;3.45;;;7.60;99.90;;;;;;6240631;23;20104;-68
2024/01/24 00:15:35;;;;;;;13.15;3.38;;;7.60;99.90;;;;;;6239747;23;20023;-69
2024/01/24 00:18:21;;;;;;;10.02;2.78;;;7.60;99.90;;;;;;6239631;23;20514;-69
2024/01/24 00:21:07;;;;;;;10.18;3.22;;;7.60;99.90;;;;;;6241438;23;20008;-69
2024/01/24 00:23:53;;;;;;;6.57;2.95;;;7.60;99.90;;;;;;6242319;23;20066;-69
2024/01/24 00:26:39;;;;;;;5.30;2.47;;;7.70;99.90;;;;;;6239907;23;20008;-69
2024/01/24 00:29:25;;;;;;;6.65;3.05;;;7.70;99.90;;;;;;6238683;23;20153;-69
2024/01/24 00:32:11;;;;;;;6.85;2.17;;;7.70;99.90;;;;;;6242122;23;20186;-68
2024/01/24 00:34:57;;;;;;;8.18;2.67;;;7.70;99.90;;;;;;6239558;23;20005;-68
2024/01/24 00:37:43;;;;;;;6.22;2.72;;;7.70;99.90;;;;;;6240453;23;20013;-68
2024/01/24 00:40:29;;;;;;;5.60;2.60;;;7.70;99.90;;;;;;6239664;23;20226;-68
2024/01/24 00:43:15;;;;;;;8.15;2.55;;;7.70;99.90;;;;;;6240477;23;20019;-68
2024/01/24 00:46:01;;;;;;;8.23;2.60;;;7.80;99.90;;;;;;6242122;23;20027;-68
2024/01/24 00:48:47;;;;;;;6.65;3.35;;;7.70;99.90;;;;;;6243659;23;20008;-68
2024/01/24 00:51:33;;;;;;;9.88;3.28;;;7.80;99.90;;;;;;6221320;23;20016;-68
2024/01/24 00:54:20;;;;;;;8.13;3.15;;;7.80;99.90;;;;;;6242236;23;20012;-68
2024/01/24 00:57:06;;;;;;;13.38;3.42;;;7.80;99.90;;;;;;6243393;23;20016;-69
2024/01/24 00:59:52;;;;;;;8.50;2.97;;;7.80;99.90;;;;;;6269149;23;20019;-69
2024/01/24 01:02:38;;;;;;;6.35;3.10;;;7.80;99.90;;;;;;6266906;22;20096;-68
2024/01/24 01:05:24;;;;;;;4.88;2.30;;;7.80;99.90;;;;;;6242778;23;20155;-68
2024/01/24 01:08:10;;;;;;;6.40;2.67;;;7.90;99.90;;;;;;6244694;23;20020;-67
2024/01/24 01:10:56;;;;;;;6.18;2.97;;;7.90;99.90;;;;;;6240272;23;20019;-68
2024/01/24 01:13:42;;;;;;;4.25;2.00;;;7.90;99.90;;;;;;6240876;23;20040;-67
2024/01/24 01:16:28;;;;;;;5.03;1.70;;;7.90;99.90;;;;;;6241417;23;20077;-67
2024/01/24 01:19:14;;;;;;;3.88;2.05;;;7.90;99.90;;;;;;6220089;23;20008;-66
2024/01/24 01:22:00;;;;;;;6.38;2.22;;;7.90;99.90;;;;;;6242020;23;20011;-66
2024/01/24 01:24:46;;;;;;;4.15;1.65;;;7.90;99.90;;;;;;6240959;23;20004;-66
2024/01/24 01:27:32;;;;;;;5.03;1.95;;;8.00;99.90;;;;;;6241187;23;20001;-66
2024/01/24 01:30:18;;;;;;;7.25;2.03;;;8.00;99.90;;;;;;6242487;23;20015;-66
2024/01/24 01:33:04;;;;;;;8.25;2.13;;;8.00;99.90;;;;;;6240211;23;20011;-66
2024/01/24 01:35:50;;;;;;;5.18;2.13;;;8.00;99.90;;;;;;6240318;23;20076;-66
2024/01/24 01:38:36;;;;;;;4.63;1.75;;;8.10;99.90;;;;;;6241805;23;20009;-66
2024/01/24 01:41:22;;;;;;;8.25;2.47;;;8.10;99.90;;;;;;6240586;23;20091;-66
2024/01/24 01:44:08;;;;;;;3.35;1.85;;;8.10;99.90;;;;;;6240109;23;20453;-66
2024/01/24 01:46:54;;;;;;;4.80;1.85;;;8.10;99.90;;;;;;6241512;23;20453;-66
2024/01/24 01:49:43;;;;;;;3.28;1.50;;;8.20;99.90;;;;;;6240083;23;20394;-67
2024/01/24 01:52:30;;;;;;;2.60;1.38;;;8.20;99.90;;;;;;6239992;23;20011;-66
2024/01/24 01:55:16;;;;;;;4.25;1.63;;;8.20;99.90;;;;;;6240057;23;20038;-66
2024/01/24 01:58:02;;;;;;;2.92;1.58;;;8.20;99.90;;;;;;6240358;23;20016;-67
2024/01/24 02:00:50;;;;;;;3.33;1.40;;;8.20;99.90;;;;;;6243536;23;20012;-66
2024/01/24 02:03:36;;;;;;;1.70;1.30;;;8.30;99.90;;;;;;6245111;22;20022;-66
2024/01/24 02:06:22;;;;;;;3.53;2.03;;;8.30;99.90;;;;;;6242426;23;20012;-65
2024/01/24 02:09:10;;;;;;;5.40;1.83;;;8.30;99.90;;;;;;6220848;23;20083;-66
2024/01/24 02:11:56;;;;;;;2.33;1.40;;;8.40;99.90;;;;;;6241331;23;20437;-69
2024/01/24 02:14:42;;;;;;;4.35;1.55;;;8.40;99.90;;;;;;6240665;23;20399;-68
2024/01/24 02:17:27;;;;;;;1.95;1.27;;;8.40;99.90;;;;;;6240669;23;20019;-66
2024/01/24 02:20:15;;;;;;;2.58;1.63;;;8.40;99.90;;;;;;6241498;23;20016;-64
2024/01/24 02:23:02;;;;;;;3.03;1.60;;;8.40;99.90;;;;;;6220102;23;20016;-63
2024/01/24 02:25:49;;;;;;;3.20;1.52;;;8.50;99.90;;;;;;6239985;23;20079;-64
2024/01/24 02:28:35;;;;;;;3.85;1.27;;;8.50;99.90;;;;;;6243243;23;20011;-63
2024/01/24 02:31:21;;;;;;;2.33;1.30;;;8.50;99.90;;;;;;6241551;23;20476;-63
2024/01/24 02:34:07;;;;;;;2.75;1.30;;;8.60;99.90;;;;;;6240223;23;20004;-63
2024/01/24 02:36:53;;;;;;;2.47;1.25;;;8.60;99.90;;;;;;6239156;23;20020;-63
2024/01/24 02:39:39;;;;;;;2.85;1.33;;;8.60;99.90;;;;;;6240810;23;20011;-63
2024/01/24 02:42:25;;;;;;;2.83;1.35;;;8.70;99.90;;;;;;6240806;23;20405;-63
2024/01/24 02:45:11;;;;;;;4.45;1.83;;;8.70;99.90;;;;;;6243567;23;20036;-64
2024/01/24 02:47:57;;;;;;;3.33;1.70;;;8.80;99.90;;;;;;6240381;23;20396;-63
2024/01/24 02:50:43;;;;;;;3.75;1.77;;;8.80;99.90;;;;;;6240882;23;20015;-63
2024/01/24 02:53:29;;;;;;;4.13;1.65;;;8.90;99.90;;;;;;6241102;23;20032;-64
2024/01/24 02:56:15;;;;;;;3.95;1.60;;;8.90;99.90;;;;;;6240676;23;20020;-64
2024/01/24 02:59:01;;;;;;;2.88;1.42;;;8.90;99.90;;;;;;6241154;23;20020;-63
2024/01/24 03:01:47;;;;;;;2.75;1.55;;;9.00;99.90;;;;;;6239903;23;20268;-64
2024/01/24 03:04:33;;;;;;;2.58;1.60;;;9.00;99.90;;;;;;6240756;23;20010;-64
2024/01/24 03:07:19;;;;;;;2.38;1.17;;;9.00;99.90;;;;;;6240386;23;20062;-64
2024/01/24 03:10:05;;;;;;;5.35;1.98;;;9.00;99.90;;;;;;6240888;23;20058;-64
2024/01/24 03:12:52;;;;;;;1.67;1.27;;;9.10;99.90;;;;;;6241350;23;20026;-65
2024/01/24 03:15:38;;;;;;;1.55;1.25;;;9.10;99.90;;;;;;6240594;23;20044;-64
2024/01/24 03:18:24;;;;;;;3.90;1.60;;;9.10;99.90;;;;;;6240165;23;20207;-64
2024/01/24 03:21:15;;;;;;;2.08;1.40;;;9.10;99.90;;;;;;6240097;23;20218;-64
2024/01/24 03:24:01;;;;;;;4.00;1.63;;;9.20;99.90;;;;;;6241618;23;20079;-69
2024/01/24 03:26:47;;;;;;;4.95;2.13;;;9.20;99.90;;;;;;6240563;23;20097;-69
2024/01/24 03:29:33;;;;;;;4.35;1.70;;;9.20;99.90;;;;;;6239743;23;20061;-69
2024/01/24 03:32:19;;;;;;;3.05;1.60;;;9.30;99.90;;;;;;6220063;23;20024;-69
2024/01/24 03:35:07;;;;;;;1.63;1.30;;;9.30;99.90;;;;;;6239884;23;20054;-69
2024/01/24 03:37:53;;;;;;;2.72;1.60;;;9.30;99.90;;;;;;6219760;23;20019;-69
2024/01/24 03:40:39;;;;;;;3.13;1.90;;;9.30;99.90;;;;;;6239529;23;20040;-68
2024/01/24 03:43:25;;;;;;;3.97;1.80;;;9.30;99.90;;;;;;6241605;23;20087;-68
2024/01/24 03:46:11;;;;;;;2.55;1.42;;;9.40;99.90;;;;;;6240266;23;20008;-68
2024/01/24 03:48:57;;;;;;;3.45;1.70;;;9.40;99.90;;;;;;6242484;23;20059;-68
2024/01/24 03:51:44;;;;;;;4.45;1.55;;;9.50;99.90;;;;;;6239415;23;20323;-69
2024/01/24 03:54:30;;;;;;;2.33;1.73;;;9.50;99.90;;;;;;6240017;23;20146;-68
2024/01/24 03:57:16;;;;;;;3.72;1.80;;;9.50;99.90;;;;;;6241044;23;20073;-68
2024/01/24 04:00:05;;;;;;;3.28;1.33;;;9.60;99.90;;;;;;6241435;23;20019;-68
2024/01/24 04:02:51;;;;;;;6.20;3.03;;;9.60;99.90;;;;;;6239957;23;20043;-68
2024/01/24 04:05:37;;;;;;;4.82;2.15;;;9.60;99.90;;;;;;6218587;23;20008;-68
2024/01/24 04:08:23;;;;;;;3.78;1.85;;;9.70;99.90;;;;;;6239694;23;20008;-68
2024/01/24 04:11:09;;;;;;;4.25;2.00;;;9.70;99.90;;;;;;6240387;23;20341;-68
2024/01/24 04:13:56;;;;;;;3.85;1.40;;;9.70;99.90;;;;;;6239378;23;20512;-68
2024/01/24 04:16:42;;;;;;;2.63;1.50;;;9.70;99.90;;;;;;6239860;23;20020;-68
2024/01/24 04:19:29;;;;;;;4.25;1.70;;;9.80;99.90;;;;;;6219921;23;20008;-68
2024/01/24 04:22:16;;;;;;;5.15;1.60;;;9.80;99.90;;;;;;6227711;23;20023;-68
2024/01/24 04:25:02;;;;;;;3.70;2.33;;;9.80;99.90;;;;;;6267834;23;20027;-68
2024/01/24 04:27:48;;;;;;;5.20;2.13;;;9.90;99.90;;;;;;6255762;23;20055;-68
2024/01/24 04:30:33;;;;;;;6.90;2.50;;;9.90;99.90;;;;;;6240839;23;20004;-68
2024/01/24 04:33:19;;;;;;;3.70;1.98;;;9.90;99.90;;;;;;6240714;23;20114;-68
2024/01/24 04:36:06;;;;;;;3.40;1.40;;;9.90;99.90;;;;;;6240273;23;20078;-68
2024/01/24 04:38:51;;;;;;;3.78;1.70;;;9.90;99.90;;;;;;6240583;23;20336;-64
2024/01/24 04:41:38;;;;;;;4.00;1.77;;;10.00;99.90;;;;;;6241795;23;20083;-65
2024/01/24 04:44:24;;;;;;;3.05;1.40;;;10.00;99.90;;;;;;6239401;23;20102;-65
2024/01/24 04:47:10;;;;;;;5.28;2.00;;;10.10;99.90;;;;;;6219085;23;20091;-64
2024/01/24 04:49:59;;;;;;;3.72;2.13;;;10.10;99.90;;;;;;6239526;23;20386;-64
2024/01/24 04:52:44;;;;;;;2.95;1.58;;;10.20;99.90;;;;;;6242014;23;20035;-64
2024/01/24 04:55:30;;;;;;;3.75;1.65;;;10.20;99.90;;;;;;6239672;23;20024;-64
2024/01/24 04:58:16;;;;;;;3.58;1.52;;;10.20;99.90;;;;;;6219027;23;20019;-64
2024/01/24 05:01:03;;;;;;;4.10;1.80;;;10.30;99.90;;;;;;6239462;23;20012;-64
2024/01/24 05:03:48;;;;;;;2.22;1.33;;;10.30;99.90;;;;;;6240346;23;20429;-64
2024/01/24 05:06:35;;;;;;;2.45;1.55;;;10.30;99.90;;;;;;6241560;23;20478;-64
2024/01/24 05:09:21;;;;;;;3.47;1.48;;;10.40;99.90;;;;;;6240892;23;20090;-64
2024/01/24 05:12:07;;;;;;;1.83;1.40;;;10.40;99.90;;;;;;6240037;23;20011;-62
2024/01/24 05:14:53;;;;;;;2.40;1.45;;;10.50;99.90;;;;;;6239980;23;20012;-63
2024/01/24 05:17:39;;;;;;;4.00;2.25;;;10.50;99.90;;;;;;6239286;23;20012;-62
2024/01/24 05:20:25;;;;;;;4.05;1.40;;;10.50;99.90;;;;;;6240102;23;20075;-63
2024/01/24 05:23:11;;;;;;;2.67;1.45;;;10.60;99.90;;;;;;6241701;23;20014;-63
2024/01/24 05:25:57;;;;;;;3.38;1.30;;;10.60;99.90;;;;;;6240187;23;20016;-64
2024/01/24 05:28:43;;;;;;;4.93;1.70;;;10.70;99.90;;;;;;6238745;23;20015;-64
2024/01/24 05:31:29;;;;;;;4.55;1.60;;;10.70;99.90;;;;;;6241329;23;20016;-64
2024/01/24 05:34:14;;;;;;;2.97;2.00;;;10.80;99.90;;;;;;6241550;23;20014;-64
2024/01/24 05:37:00;;;;;;;3.30;1.65;;;10.80;99.90;;;;;;6243978;23;20059;-69
2024/01/24 05:39:47;;;;;;;2.40;1.15;;;10.80;99.90;;;;;;6241441;23;20083;-69
2024/01/24 05:42:33;;;;;;;2.78;1.60;;;10.90;99.90;;;;;;6241165;23;20406;-70
2024/01/24 05:45:19;;;;;;;2.67;1.50;;;10.90;99.90;;;;;;6241379;23;20075;-69
2024/01/24 05:48:05;;;;;;;2.92;1.42;;;10.90;99.90;;;;;;6241957;23;20012;-69
2024/01/24 05:50:51;;;;;;;2.97;1.40;;;11.00;99.90;;;;;;6241517;23;20066;-69
2024/01/24 05:53:41;;;;;;;2.78;1.27;;;11.00;99.90;;;;;;6242043;23;20446;-68
2024/01/24 05:56:27;;;;;;;2.30;1.33;;;11.10;99.90;;;;;;6241962;23;20419;-69
2024/01/24 05:59:13;;;;;;;2.67;1.27;;;11.10;99.90;;;;;;6240409;23;20457;-69
2024/01/24 06:01:59;;;;;;;3.17;1.00;;;11.10;99.90;;;;;;6220054;23;20012;-69
2024/01/24 06:04:45;;;;;;;3.97;1.42;;;11.20;99.90;;;;;;6241869;23;20097;-69
2024/01/24 06:07:31;;;;;;;2.22;1.20;;;11.20;99.90;;;;;;6241396;23;20012;-69
2024/01/24 06:10:17;;;;;;;4.05;1.65;;;11.20;99.90;;;;;;6241076;23;20562;-69
2024/01/24 06:13:03;;;;;;;1.48;1.08;;;11.20;99.90;;;;;;6241576;23;20012;-69
2024/01/24 06:15:51;;;;;;;2.58;1.40;;;11.30;99.90;;;;;;6239344;23;20016;-69
2024/01/24 06:18:37;;;;;;;3.47;1.25;;;11.30;99.90;;;;;;6242449;23;20009;-69
2024/01/24 06:21:22;;;;;;;2.45;1.38;;;11.30;99.90;;;;;;6240856;23;20008;-69
2024/01/24 06:24:08;;;;;;;1.88;1.20;;;11.30;99.90;;;;;;6241256;23;20016;-69
2024/01/24 06:26:54;;;;;;;1.98;1.10;;;11.30;99.90;;;;;;6242391;23;20031;-69
2024/01/24 06:29:40;;;;;;;3.75;1.40;;;11.30;99.90;;;;;;6241756;23;20094;-69
2024/01/24 06:32:26;;;;;;;2.65;1.20;;;11.30;99.90;;;;;;6242821;23;20004;-68
2024/01/24 06:35:12;;;;;;;3.08;1.35;;;11.40;99.90;;;;;;6240193;23;20514;-68
2024/01/24 06:37:58;;;;;;;2.60;1.20;;;11.40;99.90;;;;;;6241211;23;20018;-67
2024/01/24 06:40:44;;;;;;;1.77;1.10;;;11.40;99.90;;;;;;6240485;23;20083;-68
2024/01/24 06:43:30;;;;;;;5.18;1.67;;;11.40;99.90;;;;;;6239219;23;20008;-64
2024/01/24 06:46:17;;;;;;;1.88;1.48;;;11.40;99.90;;;;;;6242250;23;20445;-64
2024/01/24 06:49:03;;;;;;;2.92;1.30;;;11.40;99.90;;;;;;6241573;23;20015;-63
2024/01/24 06:51:50;;;;;;;3.65;1.15;;;11.50;99.90;;;;;;6239795;23;20008;-63
2024/01/24 06:54:36;;;;;;;2.15;0.93;;;11.50;99.90;;;;;;6239843;23;20004;-64
2024/01/24 06:57:22;;;;;;;1.70;1.00;;;11.50;99.90;;;;;;6239423;22;20020;-63
2024/01/24 07:00:09;;;;;;;1.70;0.95;;;11.50;99.90;;;;;;6241784;23;20078;-64
2024/01/24 07:02:56;;;;;;;2.22;1.00;;;11.60;99.90;;;;;;6240423;23;20019;-63
2024/01/24 07:05:43;;;;;;;2.85;1.10;;;11.60;99.90;;;;;;6240690;23;20005;-63
2024/01/24 07:08:29;;;;;;;1.65;0.90;;;11.60;99.90;;;;;;6220211;23;20015;-63
2024/01/24 07:11:15;;;;;;;5.57;1.65;;;11.60;99.90;;;;;;6240430;23;20009;-62
2024/01/24 07:14:01;;;;;;;3.95;1.30;;;11.60;99.90;;;;;;6241686;23;20015;-62
2024/01/24 07:16:48;;;;;;;5.22;1.30;;;11.50;99.90;;;;;;6240014;23;20107;-62
2024/01/24 07:19:34;;;;;;;3.20;1.33;;;11.40;99.90;;;;;;6240502;23;20491;-61
2024/01/24 07:22:20;;;;;;;4.95;1.80;;;11.30;99.90;;;;;;6239093;23;20368;-62
2024/01/24 07:25:07;;;;;;;4.53;1.95;;;11.30;99.90;;;;;;6239405;23;20012;-62
2024/01/24 07:27:53;;;;;;;2.95;1.27;;;11.20;99.90;;;;;;6240904;23;20035;-62
2024/01/24 07:30:39;;;;;;;4.68;1.30;;;11.20;99.90;;;;;;6240482;23;20087;-62
2024/01/24 07:33:26;;;;;;;6.18;1.50;;;11.20;99.90;;;;;;6240261;23;20036;-62
2024/01/24 07:36:12;;;;;;;3.92;1.40;;;11.20;99.90;;;;;;6241515;23;20027;-62
2024/01/24 07:38:58;;;;;;;6.45;2.08;;;11.30;99.90;;;;;;6239232;23;20016;-62
2024/01/24 07:41:44;;;;;;;3.63;2.10;;;11.20;99.90;;;;;;6238705;23;20023;-71
2024/01/24 07:44:30;;;;;;;5.05;1.90;;;11.20;99.90;;;;;;6240967;23;20012;-69
2024/01/24 07:47:19;;;;;;;9.52;2.67;;;11.20;99.90;;;;;;6265064;23;20004;-69
2024/01/24 07:50:05;;;;;;;5.63;2.28;;;11.20;99.90;;;;;;6269522;23;20000;-69
2024/01/24 07:52:51;;;;;;;6.78;2.83;;;11.20;99.90;;;;;;6248610;23;20034;-69
2024/01/24 07:55:37;;;;;;;11.57;2.67;;;11.30;99.90;;;;;;6242370;23;20051;-68
2024/01/24 07:58:23;;;;;;;10.95;3.40;;;11.30;99.90;;;;;;6241881;23;20109;-69
2024/01/24 08:01:09;;;;;;;9.18;2.78;;;11.30;99.90;;;;;;6242468;23;20341;-69
2024/01/24 08:03:55;;;;;;;5.63;2.55;;;11.30;99.90;;;;;;6242284;23;20004;-70
2024/01/24 08:06:41;;;;;;;6.07;2.35;;;11.30;99.90;;;;;;6239743;23;20016;-69
2024/01/24 08:09:27;;;;;;;9.23;2.83;;;11.30;99.90;;;;;;6240673;23;20004;-69
2024/01/24 08:12:13;;;;;;;9.98;2.20;;;11.40;99.90;;;;;;6239928;23;20016;-69
2024/01/24 08:14:59;;;;;;;7.90;3.15;;;11.40;99.90;;;;;;6241158;23;20333;-69
2024/01/24 08:17:46;;;;;;;8.43;2.85;;;11.40;99.90;;;;;;6239103;23;20094;-69
2024/01/24 08:20:32;;;;;;;9.27;2.78;;;11.40;99.90;;;;;;6242017;23;20167;-69
2024/01/24 08:23:18;;;;;;;9.52;2.92;;;11.40;99.90;;;;;;6240165;23;20091;-69
2024/01/24 08:26:04;;;;;;;9.10;2.58;;;11.50;99.90;;;;;;6241849;23;20392;-70
2024/01/24 08:28:50;;;;;;;13.60;2.75;;;11.50;99.90;;;;;;6239999;23;20019;-69
2024/01/24 08:31:36;;;;;;;7.65;2.75;;;11.50;99.90;;;;;;6239661;23;20059;-69
2024/01/24 08:34:22;;;;;;;8.15;2.35;;;11.50;99.90;;;;;;6240411;23;20352;-69
2024/01/24 08:37:08;;;;;;;4.85;2.50;;;11.60;99.90;;;;;;6240077;23;20019;-77
2024/01/24 08:39:54;;;;;;;6.55;2.15;;;11.50;99.90;;;;;;6239781;23;20008;-77
2024/01/24 08:42:42;;;;;;;9.18;2.42;;;11.60;99.90;;;;;;6242268;23;20019;-76
2024/01/24 08:45:27;;;;;;;8.20;2.10;;;11.60;99.90;;;;;;6219748;23;20023;-76
2024/01/24 08:48:14;;;;;;;9.05;2.30;;;11.60;99.90;;;;;;6238615;23;20015;-76
2024/01/24 08:51:00;;;;;;;5.05;2.15;;;11.60;99.90;;;;;;6239651;23;20514;-76
2024/01/24 08:53:46;;;;;;;13.02;2.92;;;11.60;99.90;;;;;;6240135;23;20008;-76
2024/01/24 08:56:32;;;;;;;6.78;2.42;;;11.70;99.90;;;;;;6238027;23;20012;-76
2024/01/24 08:59:18;;;;;;;6.85;2.05;;;11.60;99.90;;;;;;6240178;23;20109;-77
2024/01/24 09:02:04;;;;;;;5.90;2.42;;;11.60;99.90;;;;;;6239988;23;20344;-76
2024/01/24 09:04:52;;;;;;;4.95;2.35;;;11.50;99.90;;;;;;6242203;23;20012;-80
2024/01/24 09:07:38;;;;;;;12.90;2.35;;;11.50;99.90;;;;;;6241932;23;20012;-79
2024/01/24 09:10:24;;;;;;;10.38;3.03;;;11.50;99.90;;;;;;6242770;23;20398;-79
2024/01/24 09:13:10;;;;;;;6.25;2.20;;;11.50;99.90;;;;;;6241755;23;20012;-77
2024/01/24 09:15:56;;;;;;;7.00;1.88;;;11.40;99.90;;;;;;6243328;23;20059;-77
2024/01/24 09:18:42;;;;;;;10.30;2.92;;;11.40;99.90;;;;;;6241599;23;20015;-74
2024/01/24 09:21:28;;;;;;;5.75;2.67;;;11.30;99.90;;;;;;6241696;23;20012;-75
2024/01/24 09:24:14;;;;;;;7.47;2.40;;;11.30;99.90;;;;;;6242586;23;20504;-75
2024/01/24 09:27:00;;;;;;;11.93;3.13;;;11.30;99.90;;;;;;6242154;23;20445;-74
2024/01/24 09:29:46;;;;;;;6.15;1.92;;;11.20;99.90;;;;;;6221331;23;20353;-75
2024/01/24 09:32:32;;;;;;;7.85;2.63;;;11.20;99.90;;;;;;6242177;23;20066;-75
2024/01/24 09:35:18;;;;;;;10.38;3.08;;;11.20;99.90;;;;;;6240562;23;20019;-75
2024/01/24 09:38:04;;;;;;;6.75;2.00;;;11.30;99.90;;;;;;6241979;23;20401;-75
2024/01/24 09:40:51;;;;;;;9.18;1.98;;;11.30;99.90;;;;;;6240363;23;20445;-75
2024/01/24 09:43:39;;;;;;;8.38;2.15;;;11.30;99.90;;;;;;6242989;23;20012;-75
2024/01/24 09:46:25;;;;;;;5.75;2.33;;;11.40;99.90;;;;;;6243324;23;20008;-75
2024/01/24 09:49:11;;;;;;;8.07;2.78;;;11.40;99.90;;;;;;6222811;23;20384;-75
2024/01/24 09:51:59;;;;;;;12.15;2.45;;;11.50;99.90;;;;;;6221603;23;20330;-73
2024/01/24 09:54:45;;;;;;;9.85;2.45;;;11.50;99.90;;;;;;6242423;23;20023;-75
2024/01/24 09:57:33;;;;;;;8.80;2.78;;;11.60;99.90;;;;;;6240925;23;20020;-75
2024/01/24 10:44:16;;;;;;;14.52;4.18;;;12.40;99.90;;;;;;6214094;23;20339;-71
2024/01/24 10:47:03;;;;;;;16.17;4.78;;;12.40;99.90;;;;;;6211616;23;20009;-71
2024/01/24 10:49:49;;;;;;;10.52;3.47;;;12.50;99.90;;;;;;6213215;23;20063;-71
2024/01/24 10:52:39;;;;;;;13.48;4.03;;;12.50;99.90;;;;;;6210637;23;20138;-71
2024/01/24 10:55:25;;;;;;;13.70;3.38;;;12.50;99.90;;;;;;6211656;23;20438;-71
2024/01/24 10:58:12;;;;;;;13.82;4.13;;;12.60;99.90;;;;;;6211750;23;20012;-72
2024/01/24 11:00:58;;;;;;;9.55;3.22;;;12.60;99.90;;;;;;6212330;23;20135;-71
2024/01/24 11:03:47;;;;;;;13.90;4.03;;;12.60;99.90;;;;;;6211888;23;20357;-72
2024/01/24 11:06:35;;;;;;;9.25;2.72;;;12.60;99.90;;;;;;6221363;23;20039;-70
2024/01/24 11:09:33;;;;;;;17.13;3.55;;;12.60;99.90;;;;;;6238465;23;20015;-70
2024/01/24 11:12:22;;;;;;;12.07;3.60;;;12.70;99.90;;;;;;6222405;23;20060;-70
2024/01/24 11:15:13;;;;;;;9.32;3.40;;;12.70;99.90;;;;;;6214995;23;20013;-70
2024/01/24 11:18:25;;;;;;;11.38;3.65;;;12.70;99.90;;;;;;6212268;23;20016;-69
2024/01/24 11:21:11;;;;;;;10.95;3.58;;;12.70;99.90;;;;;;6211586;23;20009;-69
2024/01/24 11:23:57;;;;;;;9.55;3.47;;;12.80;99.90;;;;;;6209952;23;20013;-69
2024/01/24 11:26:46;;;;;;;10.43;3.95;;;12.70;99.70;;;;;;6189417;23;20370;-69
2024/01/24 11:29:35;;;;;;;12.02;2.83;;;12.80;99.50;;;;;;6189871;23;20013;-69
2024/01/24 11:32:55;;;;;;;8.73;3.20;;;12.80;99.50;;;;;;6209688;23;20008;-70
2024/01/24 11:35:44;;;;;;;10.80;3.45;;;12.80;99.00;;;;;;6211448;23;20009;-70
2024/01/24 11:38:30;;;;;;;9.68;3.67;;;12.80;99.00;;;;;;6211686;23;20040;-70
2024/01/24 11:41:26;;;;;;;9.90;2.85;;;12.80;99.00;;;;;;6210711;23;20460;-69
2024/01/24 11:44:12;;;;;;;14.13;4.07;;;12.70;98.40;;;;;;6210584;23;20438;-72
2024/01/24 11:46:58;;;;;;;7.68;2.75;;;12.70;98.40;;;;;;6211232;23;20442;-71
2024/01/24 11:49:50;;;;;;;6.88;3.10;;;12.70;98.20;;;;;;6210593;23;20012;-71
2024/01/24 11:52:37;;;;;;;8.98;3.60;;;12.70;98.40;;;;;;6211201;23;20345;-72
2024/01/24 11:55:23;;;;;;;12.90;3.78;;;12.80;98.00;;;;;;6207554;23;20044;-71
2024/01/24 11:58:09;;;;;;;14.07;4.13;;;12.80;98.10;;;;;;6211978;23;20008;-72
2024/01/24 12:00:58;;;;;;;8.60;3.60;;;12.80;97.90;;;;;;6210564;23;20009;-71
2024/01/24 12:03:48;;;;;;;12.30;3.30;;;12.80;97.70;;;;;;6210581;23;20004;-72
2024/01/24 12:06:35;;;;;;;8.52;2.70;;;12.80;97.80;;;;;;6208163;23;20016;-71
2024/01/24 12:09:21;;;;;;;12.82;3.25;;;12.80;97.60;;;;;;6211775;23;20009;-72
2024/01/24 12:12:09;;;;;;;10.32;3.33;;;12.90;97.30;;;;;;6211197;23;20011;-73
2024/01/24 12:14:55;;;;;;;9.60;3.20;;;12.90;97.20;;;;;;6211520;23;20012;-71
2024/01/24 12:17:43;;;;;;;9.10;3.22;;;12.90;97.00;;;;;;6210466;23;20021;-71
2024/01/24 12:20:29;;;;;;;7.93;3.63;;;12.90;96.80;;;;;;6209188;23;20020;-71
2024/01/24 12:23:16;;;;;;;8.98;2.22;;;12.90;96.70;;;;;;6206933;23;20016;-71
2024/01/24 12:26:03;;;;;;;9.82;3.20;;;12.90;96.60;;;;;;6208022;23;20072;-69
2024/01/24 12:28:49;;;;;;;9.50;3.15;;;12.90;96.40;;;;;;6210879;23;20013;-69
2024/01/24 12:31:38;;;;;;;14.98;4.47;;;12.90;96.40;;;;;;6210002;23;20005;-69
2024/01/24 12:34:28;;;;;;;11.45;2.88;;;12.90;96.40;;;;;;6211334;23;20012;-69
2024/01/24 12:37:14;;;;;;;9.98;2.92;;;12.90;96.40;;;;;;6189757;23;20385;-70
2024/01/24 12:40:07;;;;;;;14.10;3.05;;;12.80;96.30;;;;;;6211873;23;20005;-70
2024/01/24 12:42:54;;;;;;;9.38;2.72;;;12.80;96.30;;;;;;6214150;23;20020;-70
2024/01/24 12:45:40;;;;;;;7.82;3.22;;;12.70;96.40;;;;;;6213122;23;20017;-70
2024/01/24 12:48:26;;;;;;;11.57;4.45;;;12.70;96.40;;;;;;6212307;23;20387;-70
2024/01/24 12:51:12;;;;;;;12.93;4.90;;;12.70;96.50;;;;;;6211597;23;20009;-69
2024/01/24 12:53:58;;;;;;;9.50;3.25;;;12.70;96.50;;;;;;6212360;23;20450;-69
2024/01/24 12:56:48;;;;;;;15.95;4.85;;;12.70;96.30;;;;;;6212013;23;20021;-70
2024/01/24 12:59:34;;;;;;;10.40;3.90;;;12.70;96.30;;;;;;6212172;23;20012;-70
2024/01/24 13:02:20;;;;;;;12.30;4.35;;;12.70;96.30;;;;;;6213025;23;20009;-70
2024/01/24 13:05:06;;;;;;;8.93;3.35;;;12.70;96.30;;;;;;6212599;23;20013;-69
2024/01/24 13:07:52;;;;;;;9.00;3.58;;;12.70;96.40;;;;;;6211941;23;20059;-69
2024/01/24 13:10:42;;;;;;;7.30;2.75;;;12.70;96.30;;;;;;6189965;23;20017;-71
2024/01/24 13:13:29;;;;;;;7.28;3.30;;;12.70;96.40;;;;;;6213749;23;20008;-71
2024/01/24 13:16:15;;;;;;;10.50;3.60;;;12.80;96.20;;;;;;6213211;23;20016;-71
2024/01/24 13:19:02;;;;;;;14.13;3.83;;;12.80;96.10;;;;;;6210898;23;20008;-71
2024/01/24 13:21:48;;;;;;;9.65;4.15;;;12.80;96.10;;;;;;6213483;23;20023;-71
2024/01/24 13:24:34;;;;;;;18.60;5.75;;;12.70;96.00;;;;;;6213101;23;20004;-71
2024/01/24 13:27:20;;;;;;;9.93;3.80;;;12.80;95.90;;;;;;6213577;23;20009;-71
2024/01/24 13:30:06;;;;;;;10.52;2.97;;;12.80;96.00;;;;;;6211864;23;20009;-70
2024/01/24 13:32:52;;;;;;;9.30;3.30;;;12.70;96.00;;;;;;6212221;23;20079;-70
2024/01/24 13:35:38;;;;;;;13.55;3.92;;;12.70;95.90;;;;;;6190168;23;20009;-70
2024/01/24 13:38:26;;;;;;;17.05;4.70;;;12.70;95.90;;;;;;6212261;23;20078;-70
2024/01/24 13:41:13;;;;;;;14.70;4.43;;;12.80;95.90;;;;;;6213440;23;20260;-71
2024/01/24 13:43:59;;;;;;;12.35;4.55;;;12.70;95.70;;;;;;6212214;23;20553;-70
2024/01/24 13:46:46;;;;;;;10.32;3.53;;;12.70;95.80;;;;;;6211681;23;20475;-70
2024/01/24 13:49:32;;;;;;;9.65;3.22;;;12.70;95.70;;;;;;6211879;23;20066;-70
2024/01/24 13:52:18;;;;;;;9.23;3.63;;;12.70;95.70;;;;;;6209889;23;20047;-71
2024/01/24 13:55:07;;;;;;;12.38;3.45;;;12.70;95.50;;;;;;6212277;23;20337;-71
2024/01/24 13:57:56;;;;;;;10.73;3.60;;;12.70;95.40;;;;;;6213034;23;20017;-71
2024/01/24 14:00:42;;;;;;;10.20;3.15;;;12.80;95.60;;;;;;6210833;23;20008;-70
2024/01/24 14:03:27;;;;;;;11.80;2.83;;;12.70;94.90;;;;;;6210135;23;20016;-71
2024/01/24 14:06:14;;;;;;;10.90;3.70;;;12.70;95.30;;;;;;6212264;23;20013;-71
2024/01/24 14:09:00;;;;;;;11.45;3.20;;;12.70;95.10;;;;;;6213648;23;20022;-70
2024/01/24 14:11:47;;;;;;;12.73;3.25;;;12.70;95.10;;;;;;6210961;23;20013;-69
2024/01/24 14:14:33;;;;;;;12.48;3.85;;;12.60;95.10;;;;;;6213474;23;20039;-68
2024/01/24 14:17:19;;;;;;;9.95;3.70;;;12.60;95.10;;;;;;6211562;23;20116;-69
2024/01/24 14:20:06;;;;;;;14.68;4.55;;;12.60;95.10;;;;;;6212411;23;20004;-69
2024/01/24 14:22:52;;;;;;;11.02;3.78;;;12.60;95.10;;;;;;6220336;23;20004;-68
2024/01/24 14:25:38;;;;;;;14.48;5.07;;;12.60;95.10;;;;;;6236995;23;20012;-69
2024/01/24 14:28:23;;;;;;;13.38;3.15;;;12.60;95.00;;;;;;6222077;23;20437;-67
2024/01/24 14:31:09;;;;;;;8.52;3.00;;;12.50;95.00;;;;;;6212869;23;20011;-68
2024/01/24 14:33:55;;;;;;;11.90;3.67;;;12.60;95.10;;;;;;6212148;23;20414;-68
2024/01/24 14:36:41;;;;;;;11.30;3.88;;;12.60;95.10;;;;;;6210730;23;20352;-69
2024/01/24 14:39:27;;;;;;;14.30;3.72;;;12.60;95.00;;;;;;6211006;23;20036;-69
2024/01/24 14:42:13;;;;;;;9.85;2.72;;;12.50;95.00;;;;;;6212719;23;20047;-69
2024/01/24 14:45:00;;;;;;;10.40;3.08;;;12.50;95.00;;;;;;6212261;23;20005;-68
2024/01/24 14:47:48;;;;;;;10.32;3.83;;;12.40;95.00;;;;;;6213580;23;20013;-71
2024/01/24 14:50:34;;;;;;;9.70;3.30;;;12.40;95.20;;;;;;6212163;23;20337;-72
2024/01/24 14:53:20;;;;;;;8.73;3.42;;;12.40;95.10;;;;;;6209782;23;20016;-71
2024/01/24 14:56:06;;;;;;;10.07;3.30;;;12.40;95.10;;;;;;6211015;23;20078;-71
2024/01/24 14:58:52;;;;;;;14.20;4.10;;;12.40;95.10;;;;;;6213035;23;20012;-71
2024/01/24 15:01:38;;;;;;;11.30;3.35;;;12.40;95.10;;;;;;6210757;23;20241;-72
2024/01/24 15:04:25;;;;;;;11.05;3.08;;;12.30;95.00;;;;;;6188636;23;20012;-72
2024/01/24 15:07:11;;;;;;;9.82;3.85;;;12.30;94.90;;;;;;6212656;23;20032;-73
2024/01/24 15:09:57;;;;;;;10.45;2.92;;;12.20;95.00;;;;;;6190173;23;20032;-72
2024/01/24 15:12:43;;;;;;;14.20;3.53;;;12.30;95.20;;;;;;6210248;23;20059;-71